createdAt,value
2023-05-05T10:51:55.947Z,93.50
2023-05-05T11:49:28.436Z,96.70
2023-05-05T11:52:01.915Z,97.00
2023-05-05T11:54:29.057Z,97.20
2023-05-05T11:56:57.422Z,97.40
2023-05-05T11:59:24.689Z,97.60
2023-05-05T12:01:51.904Z,97.80
2023-05-05T12:04:19.217Z,98.10
2023-05-05T12:06:46.530Z,98.20
2023-05-05T12:09:20.050Z,98.80
2023-05-05T12:12:30.252Z,98.50
2023-05-05T12:14:57.220Z,98.70
2023-05-05T12:17:24.324Z,98.70
2023-05-05T12:19:53.252Z,98.70
2023-05-05T12:22:35.816Z,98.80
2023-05-05T12:25:05.263Z,98.70
2023-05-05T12:27:32.316Z,98.70
2023-05-05T12:30:18.262Z,98.70
2023-05-05T12:32:45.978Z,98.70
2023-05-05T12:35:16.044Z,98.80
2023-05-05T12:37:44.885Z,98.90
2023-05-05T12:40:47.290Z,99.00
2023-05-05T12:43:29.434Z,99.00
2023-05-05T12:46:05.031Z,99.00
2023-05-05T12:48:32.943Z,99.00
2023-05-05T12:51:25.151Z,99.00
2023-05-05T12:54:19.548Z,98.90
2023-05-05T12:56:51.054Z,98.80
2023-05-05T12:59:30.124Z,98.70
2023-05-05T13:02:03.912Z,98.60
2023-05-05T13:04:40.973Z,98.60
2023-05-05T13:07:20.283Z,98.60
2023-05-05T13:09:54.940Z,98.60
2023-05-05T13:12:34.665Z,98.70
2023-05-05T13:15:02.700Z,98.80
2023-05-05T13:17:30.014Z,98.90
2023-05-05T13:19:58.086Z,99.00
2023-05-05T13:22:47.761Z,99.10
2023-05-05T13:25:16.141Z,99.20
2023-05-05T13:27:43.617Z,99.30
2023-05-05T13:30:11.314Z,99.30
2023-05-05T13:32:38.399Z,99.40
2023-05-05T13:35:06.564Z,99.40
2023-05-05T13:37:33.797Z,99.40
2023-05-05T13:40:01.388Z,99.40
2023-05-05T13:42:28.308Z,99.40
2023-05-05T13:44:55.398Z,99.60
2023-05-05T13:47:22.570Z,99.50
2023-05-05T13:49:50.111Z,99.40
2023-05-05T13:52:53.482Z,99.50
2023-05-05T13:55:21.700Z,99.30
2023-05-05T13:57:48.545Z,99.40
2023-05-05T14:00:16.102Z,99.30
2023-05-05T14:02:42.987Z,99.10
2023-05-05T14:05:10.266Z,99.10
2023-05-05T14:07:37.244Z,99.10
2023-05-05T14:10:04.373Z,99.00
2023-05-05T14:12:31.213Z,98.90
2023-05-05T14:14:58.823Z,98.90
2023-05-05T14:17:25.896Z,98.80
2023-05-05T14:19:52.679Z,98.80
2023-05-05T14:22:24.788Z,98.50
2023-05-05T14:24:51.618Z,98.30
2023-05-05T14:27:18.834Z,98.30
2023-05-05T14:29:46.301Z,98.20
2023-05-05T14:32:13.647Z,98.20
2023-05-05T14:34:43.509Z,98.10
2023-05-05T14:37:12.937Z,97.80
2023-05-05T14:39:39.781Z,97.60
2023-05-05T14:42:06.605Z,97.50
2023-05-05T14:44:33.536Z,97.50
2023-05-05T14:47:00.443Z,98.00
2023-05-05T14:49:27.293Z,97.40
2023-05-05T14:51:54.895Z,97.20
2023-05-05T14:54:28.328Z,97.20
2023-05-05T14:56:56.161Z,97.30
2023-05-05T14:59:22.966Z,97.20
2023-05-05T15:01:49.831Z,97.20
2023-05-05T15:04:16.787Z,97.10
2023-05-05T15:06:43.564Z,96.80
2023-05-05T15:09:10.395Z,96.40
2023-05-05T15:11:37.956Z,96.00
2023-05-05T15:14:04.795Z,95.80
2023-05-05T15:16:33.162Z,95.50
2023-05-05T15:19:01.313Z,95.40
2023-05-05T15:21:33.707Z,95.20
2023-05-05T15:24:00.637Z,95.20
2023-05-05T15:26:27.578Z,95.30
2023-05-05T15:28:54.680Z,95.10
2023-05-05T15:31:26.692Z,94.80
2023-05-05T15:33:53.553Z,95.00
2023-05-05T15:36:22.718Z,95.10
2023-05-05T15:38:49.588Z,94.80
2023-05-05T15:41:16.388Z,94.90
2023-05-05T15:43:43.204Z,95.00
2023-05-05T15:46:10.131Z,94.80
2023-05-05T15:48:37.006Z,94.90
2023-05-05T15:51:14.553Z,94.60
2023-05-05T15:53:41.619Z,94.50
2023-05-05T15:56:09.178Z,94.30
2023-05-05T15:58:36.686Z,94.00
2023-05-05T16:01:08.527Z,94.00
2023-05-05T16:03:35.445Z,93.80
2023-05-05T16:06:02.535Z,93.80
2023-05-05T16:08:30.146Z,93.80
2023-05-05T16:10:57.068Z,93.70
2023-05-05T16:13:23.903Z,93.60
2023-05-05T16:15:50.694Z,93.40
2023-05-05T16:18:17.526Z,93.30
2023-05-05T16:20:44.666Z,92.90
2023-05-05T16:23:11.590Z,92.70
2023-05-05T16:25:38.655Z,92.50
2023-05-05T16:28:05.496Z,92.70
2023-05-05T16:30:32.442Z,92.60
2023-05-05T16:32:59.495Z,91.90
2023-05-05T16:35:26.709Z,91.40
2023-05-05T16:37:54.000Z,91.30
2023-05-05T16:40:21.152Z,90.90
2023-05-05T16:42:47.986Z,90.60
2023-05-05T16:45:14.847Z,90.60
2023-05-05T16:47:41.738Z,90.70
2023-05-05T20:48:21.145Z,95.80
2023-05-05T20:50:48.094Z,96.00
2023-05-05T20:53:18.865Z,95.90
2023-05-05T20:55:46.117Z,96.00
2023-05-05T20:58:12.913Z,96.00
2023-05-05T21:00:45.480Z,96.10
2023-05-05T21:03:12.421Z,96.00
2023-05-05T21:05:42.944Z,95.90
2023-05-05T21:08:09.811Z,96.00
2023-05-05T21:10:42.459Z,95.80
2023-05-05T21:13:09.265Z,95.80
